sensor_id;sensor_type;location;lat;lon;timestamp;pressure;altitude;pressure_sealevel;temperature;humidity
62103;BME280;48077;48.104;11.702;2024-01-11T00:00:40;96286.69;;;-6.71;100.00
62103;BME280;48077;48.104;11.702;2024-01-11T00:03:08;96293.03;;;-6.62;100.00
62103;BME280;48077;48.104;11.702;2024-01-11T00:05:36;96287.38;;;-6.43;100.00
62103;BME280;48077;48.104;11.702;2024-01-11T00:08:07;96292.38;;;-6.53;100.00
62103;BME280;48077;48.104;11.702;2024-01-11T00:10:36;96288.44;;;-6.59;100.00
62103;BME280;48077;48.104;11.702;2024-01-11T00:13:03;96289.00;;;-6.66;100.00
62103;BME280;48077;48.104;11.702;2024-01-11T00:15:31;96292.72;;;-6.58;100.00
62103;BME280;48077;48.104;11.702;2024-01-11T00:17:59;96288.19;;;-6.43;100.00
62103;BME280;48077;48.104;11.702;2024-01-11T00:20:27;96294.22;;;-6.42;100.00
62103;BME280;48077;48.104;11.702;2024-01-11T00:22:55;96292.38;;;-6.53;100.00
62103;BME280;48077;48.104;11.702;2024-01-11T00:25:24;96290.44;;;-6.75;100.00
62103;BME280;48077;48.104;11.702;2024-01-11T00:27:51;96295.44;;;-6.72;100.00
62103;BME280;48077;48.104;11.702;2024-01-11T00:30:19;96293.25;;;-6.78;100.00
62103;BME280;48077;48.104;11.702;2024-01-11T00:32:47;96288.25;;;-6.81;100.00
62103;BME280;48077;48.104;11.702;2024-01-11T00:35:15;96291.28;;;-6.87;100.00
62103;BME280;48077;48.104;11.702;2024-01-11T00:37:43;96287.97;;;-6.77;100.00
62103;BME280;48077;48.104;11.702;2024-01-11T00:40:11;96297.41;;;-6.76;100.00
62103;BME280;48077;48.104;11.702;2024-01-11T00:42:40;96290.25;;;-6.72;100.00
62103;BME280;48077;48.104;11.702;2024-01-11T00:45:08;96291.25;;;-6.62;100.00
62103;BME280;48077;48.104;11.702;2024-01-11T00:47:36;96290.63;;;-6.65;100.00
62103;BME280;48077;48.104;11.702;2024-01-11T00:50:05;96296.50;;;-6.51;100.00
62103;BME280;48077;48.104;11.702;2024-01-11T00:52:33;96290.63;;;-6.65;100.00
62103;BME280;48077;48.104;11.702;2024-01-11T00:55:01;96296.47;;;-6.75;100.00
62103;BME280;48077;48.104;11.702;2024-01-11T00:57:29;96294.19;;;-6.66;100.00
62103;BME280;48077;48.104;11.702;2024-01-11T00:59:57;96293.59;;;-6.46;100.00
62103;BME280;48077;48.104;11.702;2024-01-11T01:07:44;96299.50;;;-7.06;100.00
62103;BME280;48077;48.104;11.702;2024-01-11T01:10:13;96298.34;;;-7.02;100.00
62103;BME280;48077;48.104;11.702;2024-01-11T01:12:40;96307.16;;;-6.92;100.00
62103;BME280;48077;48.104;11.702;2024-01-11T01:15:08;96304.56;;;-6.92;100.00
62103;BME280;48077;48.104;11.702;2024-01-11T01:17:37;96304.56;;;-6.92;100.00
62103;BME280;48077;48.104;11.702;2024-01-11T01:20:06;96304.56;;;-6.92;100.00
62103;BME280;48077;48.104;11.702;2024-01-11T01:22:34;96300.84;;;-6.88;100.00
62103;BME280;48077;48.104;11.702;2024-01-11T01:25:04;96308.94;;;-6.93;100.00
62103;BME280;48077;48.104;11.702;2024-01-11T01:27:32;96304.91;;;-6.97;100.00
62103;BME280;48077;48.104;11.702;2024-01-11T01:30:00;96308.53;;;-7.12;100.00
62103;BME280;48077;48.104;11.702;2024-01-11T01:32:28;96308.31;;;-7.09;100.00
62103;BME280;48077;48.104;11.702;2024-01-11T01:34:57;96309.56;;;-6.89;100.00
62103;BME280;48077;48.104;11.702;2024-01-11T01:37:25;96300.75;;;-6.86;100.00
62103;BME280;48077;48.104;11.702;2024-01-11T01:39:52;96300.94;;;-6.77;100.00
62103;BME280;48077;48.104;11.702;2024-01-11T01:42:21;96319.19;;;-6.78;100.00
62103;BME280;48077;48.104;11.702;2024-01-11T01:44:49;96325.63;;;-6.84;100.00
62103;BME280;48077;48.104;11.702;2024-01-11T01:47:17;96325.31;;;-6.92;100.00
62103;BME280;48077;48.104;11.702;2024-01-11T01:49:48;96329.38;;;-7.01;100.00
62103;BME280;48077;48.104;11.702;2024-01-11T01:52:16;96317.97;;;-6.98;100.00
62103;BME280;48077;48.104;11.702;2024-01-11T01:54:44;96327.00;;;-6.91;100.00
62103;BME280;48077;48.104;11.702;2024-01-11T01:57:13;96333.03;;;-7.03;100.00
62103;BME280;48077;48.104;11.702;2024-01-11T01:59:44;96334.47;;;-7.25;100.00
62103;BME280;48077;48.104;11.702;2024-01-11T02:02:13;96335.91;;;-7.21;100.00
62103;BME280;48077;48.104;11.702;2024-01-11T02:04:41;96333.94;;;-7.30;100.00
62103;BME280;48077;48.104;11.702;2024-01-11T02:07:10;96331.97;;;-7.39;100.00
62103;BME280;48077;48.104;11.702;2024-01-11T02:09:38;96328.84;;;-7.32;100.00
62103;BME280;48077;48.104;11.702;2024-01-11T02:12:07;96337.16;;;-7.26;100.00
62103;BME280;48077;48.104;11.702;2024-01-11T02:14:39;96335.06;;;-7.34;100.00
62103;BME280;48077;48.104;11.702;2024-01-11T02:17:09;96335.28;;;-7.37;100.00
62103;BME280;48077;48.104;11.702;2024-01-11T02:19:36;96340.97;;;-7.32;100.00
62103;BME280;48077;48.104;11.702;2024-01-11T02:22:08;96333.19;;;-7.32;100.00
62103;BME280;48077;48.104;11.702;2024-01-11T02:24:41;96332.88;;;-7.27;100.00
62103;BME280;48077;48.104;11.702;2024-01-11T02:27:09;96323.75;;;-7.46;100.00
62103;BME280;48077;48.104;11.702;2024-01-11T02:29:37;96324.16;;;-7.52;100.00
62103;BME280;48077;48.104;11.702;2024-01-11T02:32:05;96320.31;;;-7.46;100.00
62103;BME280;48077;48.104;11.702;2024-01-11T02:34:35;96291.78;;;-7.72;100.00
62103;BME280;48077;48.104;11.702;2024-01-11T02:37:04;96312.44;;;-7.58;100.00
62103;BME280;48077;48.104;11.702;2024-01-11T02:39:32;96322.28;;;-7.50;100.00
62103;BME280;48077;48.104;11.702;2024-01-11T02:42:01;96320.13;;;-7.56;100.00
62103;BME280;48077;48.104;11.702;2024-01-11T02:44:29;96323.13;;;-7.49;100.00
62103;BME280;48077;48.104;11.702;2024-01-11T02:46:57;96326.66;;;-7.38;100.00
62103;BME280;48077;48.104;11.702;2024-01-11T02:49:25;96321.69;;;-7.15;100.00
62103;BME280;48077;48.104;11.702;2024-01-11T02:51:53;96312.47;;;-7.19;100.00
62103;BME280;48077;48.104;11.702;2024-01-11T02:54:21;96314.34;;;-7.21;100.00
62103;BME280;48077;48.104;11.702;2024-01-11T02:56:49;96309.97;;;-7.21;100.00
62103;BME280;48077;48.104;11.702;2024-01-11T02:59:18;96302.50;;;-7.13;100.00
62103;BME280;48077;48.104;11.702;2024-01-11T03:01:45;96300.13;;;-7.28;100.00
62103;BME280;48077;48.104;11.702;2024-01-11T03:04:13;96302.72;;;-7.28;100.00
62103;BME280;48077;48.104;11.702;2024-01-11T03:06:41;96302.81;;;-7.17;100.00
62103;BME280;48077;48.104;11.702;2024-01-11T03:09:09;96293.59;;;-7.21;100.00
62103;BME280;48077;48.104;11.702;2024-01-11T03:11:37;96298.28;;;-7.14;100.00
62103;BME280;48077;48.104;11.702;2024-01-11T03:14:05;96295.03;;;-7.30;100.00
62103;BME280;48077;48.104;11.702;2024-01-11T03:16:34;96296.81;;;-7.30;100.00
62103;BME280;48077;48.104;11.702;2024-01-11T03:19:02;96285.19;;;-7.38;100.00
62103;BME280;48077;48.104;11.702;2024-01-11T03:21:30;96293.91;;;-7.39;100.00
62103;BME280;48077;48.104;11.702;2024-01-11T03:23:58;96285.31;;;-7.39;100.00
62103;BME280;48077;48.104;11.702;2024-01-11T03:26:26;96295.03;;;-7.30;100.00
62103;BME280;48077;48.104;11.702;2024-01-11T03:28:54;96293.91;;;-7.51;100.00
62103;BME280;48077;48.104;11.702;2024-01-11T03:31:22;96292.53;;;-7.57;100.00
62103;BME280;48077;48.104;11.702;2024-01-11T03:33:51;96283.72;;;-7.42;100.00
62103;BME280;48077;48.104;11.702;2024-01-11T03:36:23;96280.53;;;-7.33;100.00
62103;BME280;48077;48.104;11.702;2024-01-11T03:38:51;96275.13;;;-7.42;100.00
62103;BME280;48077;48.104;11.702;2024-01-11T03:41:19;96274.63;;;-7.35;100.00
62103;BME280;48077;48.104;11.702;2024-01-11T03:43:47;96277.84;;;-7.31;100.00
62103;BME280;48077;48.104;11.702;2024-01-11T03:46:14;96269.84;;;-7.41;100.00
62103;BME280;48077;48.104;11.702;2024-01-11T03:48:42;96279.19;;;-7.25;100.00
62103;BME280;48077;48.104;11.702;2024-01-11T03:51:11;96274.53;;;-7.33;100.00
62103;BME280;48077;48.104;11.702;2024-01-11T03:53:39;96271.91;;;-7.46;100.00
62103;BME280;48077;48.104;11.702;2024-01-11T03:56:07;96265.31;;;-7.37;100.00
62103;BME280;48077;48.104;11.702;2024-01-11T03:58:35;96263.44;;;-7.35;100.00
62103;BME280;48077;48.104;11.702;2024-01-11T04:01:05;96249.94;;;-7.40;100.00
62103;BME280;48077;48.104;11.702;2024-01-11T04:03:35;96258.34;;;-7.37;100.00
62103;BME280;48077;48.104;11.702;2024-01-11T04:06:03;96253.56;;;-7.17;100.00
62103;BME280;48077;48.104;11.702;2024-01-11T04:08:32;96254.91;;;-7.12;100.00
62103;BME280;48077;48.104;11.702;2024-01-11T04:11:01;96251.38;;;-7.23;100.00
62103;BME280;48077;48.104;11.702;2024-01-11T04:13:29;96249.22;;;-7.29;100.00
62103;BME280;48077;48.104;11.702;2024-01-11T04:15:57;96253.53;;;-7.04;100.00
62103;BME280;48077;48.104;11.702;2024-01-11T04:18:25;96254.28;;;-7.15;100.00
62103;BME280;48077;48.104;11.702;2024-01-11T04:20:53;96265.91;;;-7.34;100.00
62103;BME280;48077;48.104;11.702;2024-01-11T04:23:21;96266.31;;;-7.40;100.00
62103;BME280;48077;48.104;11.702;2024-01-11T04:25:50;96265.19;;;-7.48;100.00
62103;BME280;48077;48.104;11.702;2024-01-11T04:28:18;96258.03;;;-7.58;100.00
62103;BME280;48077;48.104;11.702;2024-01-11T04:30:45;96262.41;;;-7.33;100.00
62103;BME280;48077;48.104;11.702;2024-01-11T04:33:13;96261.44;;;-7.06;100.00
62103;BME280;48077;48.104;11.702;2024-01-11T04:35:41;96278.66;;;-7.30;100.00
62103;BME280;48077;48.104;11.702;2024-01-11T04:38:09;96280.53;;;-7.33;100.00
62103;BME280;48077;48.104;11.702;2024-01-11T04:40:37;96282.72;;;-7.26;100.00
62103;BME280;48077;48.104;11.702;2024-01-11T04:43:06;96286.53;;;-7.19;100.00
62103;BME280;48077;48.104;11.702;2024-01-11T04:45:35;96295.25;;;-7.07;100.00
62103;BME280;48077;48.104;11.702;2024-01-11T04:48:04;96286.31;;;-6.90;100.00
62103;BME280;48077;48.104;11.702;2024-01-11T04:50:32;96290.78;;;-6.93;100.00
62103;BME280;48077;48.104;11.702;2024-01-11T04:53:00;96278.97;;;-6.97;100.00
62103;BME280;48077;48.104;11.702;2024-01-11T04:55:27;96291.38;;;-6.76;100.00
62103;BME280;48077;48.104;11.702;2024-01-11T04:57:55;96278.97;;;-6.97;100.00
62103;BME280;48077;48.104;11.702;2024-01-11T05:00:24;96287.81;;;-7.12;100.00
62103;BME280;48077;48.104;11.702;2024-01-11T05:02:52;96282.81;;;-7.15;100.00
62103;BME280;48077;48.104;11.702;2024-01-11T05:05:20;96282.63;;;-7.25;100.00
62103;BME280;48077;48.104;11.702;2024-01-11T05:07:47;96284.28;;;-7.24;100.00
62103;BME280;48077;48.104;11.702;2024-01-11T05:10:15;96276.28;;;-7.08;100.00
62103;BME280;48077;48.104;11.702;2024-01-11T05:12:43;96271.94;;;-7.20;100.00
62103;BME280;48077;48.104;11.702;2024-01-11T05:15:11;96287.47;;;-7.07;100.00
62103;BME280;48077;48.104;11.702;2024-01-11T05:17:40;96284.25;;;-7.11;100.00
62103;BME280;48077;48.104;11.702;2024-01-11T05:20:09;96285.81;;;-7.21;100.00
62103;BME280;48077;48.104;11.702;2024-01-11T05:22:38;96276.91;;;-7.43;100.00
62103;BME280;48077;48.104;11.702;2024-01-11T05:25:06;96275.94;;;-7.42;100.00
62103;BME280;48077;48.104;11.702;2024-01-11T05:27:34;96280.00;;;-7.63;100.00
62103;BME280;48077;48.104;11.702;2024-01-11T05:30:02;96283.84;;;-7.56;100.00
62103;BME280;48077;48.104;11.702;2024-01-11T05:32:29;96277.13;;;-7.33;100.00
62103;BME280;48077;48.104;11.702;2024-01-11T05:34:59;96283.13;;;-7.58;100.00
62103;BME280;48077;48.104;11.702;2024-01-11T05:37:27;96284.78;;;-7.44;100.00
62103;BME280;48077;48.104;11.702;2024-01-11T05:39:54;96289.22;;;-7.34;100.00
62103;BME280;48077;48.104;11.702;2024-01-11T05:42:23;96293.41;;;-7.31;100.00
62103;BME280;48077;48.104;11.702;2024-01-11T05:44:51;96305.50;;;-7.32;100.00
62103;BME280;48077;48.104;11.702;2024-01-11T05:47:19;96289.22;;;-7.34;100.00
62103;BME280;48077;48.104;11.702;2024-01-11T05:49:47;96301.59;;;-7.12;100.00
62103;BME280;48077;48.104;11.702;2024-01-11T05:52:17;96302.50;;;-7.38;100.00
62103;BME280;48077;48.104;11.702;2024-01-11T05:54:45;96308.50;;;-7.50;100.00
62103;BME280;48077;48.104;11.702;2024-01-11T05:57:13;96294.47;;;-7.74;100.00
62103;BME280;48077;48.104;11.702;2024-01-11T05:59:43;96311.41;;;-7.42;100.00
62103;BME280;48077;48.104;11.702;2024-01-11T06:02:11;96320.56;;;-7.37;100.00
62103;BME280;48077;48.104;11.702;2024-01-11T06:04:40;96307.41;;;-7.86;100.00
62103;BME280;48077;48.104;11.702;2024-01-11T06:07:08;96311.16;;;-8.05;100.00
62103;BME280;48077;48.104;11.702;2024-01-11T06:09:37;96314.84;;;-8.22;100.00
62103;BME280;48077;48.104;11.702;2024-01-11T06:12:05;96306.81;;;-8.31;100.00
62103;BME280;48077;48.104;11.702;2024-01-11T06:14:33;96310.09;;;-8.15;100.00
62103;BME280;48077;48.104;11.702;2024-01-11T06:17:00;96309.91;;;-7.85;100.00
62103;BME280;48077;48.104;11.702;2024-01-11T06:19:28;96316.03;;;-7.73;100.00
62103;BME280;48077;48.104;11.702;2024-01-11T06:21:56;96310.09;;;-7.75;100.00
62103;BME280;48077;48.104;11.702;2024-01-11T06:24:24;96313.34;;;-7.71;100.00
62103;BME280;48077;48.104;11.702;2024-01-11T06:26:53;96328.97;;;-7.73;100.00
62103;BME280;48077;48.104;11.702;2024-01-11T06:29:20;96339.53;;;-7.76;100.00
62103;BME280;48077;48.104;11.702;2024-01-11T06:31:48;96335.75;;;-7.70;100.00
62103;BME280;48077;48.104;11.702;2024-01-11T06:34:16;96337.03;;;-7.38;100.00
62103;BME280;48077;48.104;11.702;2024-01-11T06:36:44;96347.19;;;-7.35;100.00
62103;BME280;48077;48.104;11.702;2024-01-11T06:39:11;96337.56;;;-7.45;100.00
62103;BME280;48077;48.104;11.702;2024-01-11T06:41:39;96347.63;;;-7.28;100.00
62103;BME280;48077;48.104;11.702;2024-01-11T06:44:08;96349.56;;;-7.44;100.00
62103;BME280;48077;48.104;11.702;2024-01-11T06:46:36;96355.56;;;-7.44;100.00
62103;BME280;48077;48.104;11.702;2024-01-11T06:49:05;96364.34;;;-7.59;100.00
62103;BME280;48077;48.104;11.702;2024-01-11T06:51:33;96365.53;;;-7.78;100.00
62103;BME280;48077;48.104;11.702;2024-01-11T06:54:01;96368.22;;;-7.79;100.00
62103;BME280;48077;48.104;11.702;2024-01-11T06:56:28;96370.72;;;-7.78;100.00
62103;BME280;48077;48.104;11.702;2024-01-11T06:58:56;96365.63;;;-7.79;100.00
62103;BME280;48077;48.104;11.702;2024-01-11T07:01:25;96369.72;;;-8.17;100.00
62103;BME280;48077;48.104;11.702;2024-01-11T07:03:53;96368.56;;;-7.98;100.00
62103;BME280;48077;48.104;11.702;2024-01-11T07:06:21;96361.34;;;-7.93;100.00
62103;BME280;48077;48.104;11.702;2024-01-11T07:08:49;96362.09;;;-7.91;100.00
62103;BME280;48077;48.104;11.702;2024-01-11T07:11:17;96372.34;;;-7.89;100.00
62103;BME280;48077;48.104;11.702;2024-01-11T07:13:44;96365.50;;;-7.90;100.00
62103;BME280;48077;48.104;11.702;2024-01-11T07:16:13;96363.25;;;-7.82;100.00
62103;BME280;48077;48.104;11.702;2024-01-11T07:18:43;96373.53;;;-7.81;100.00
62103;BME280;48077;48.104;11.702;2024-01-11T07:21:11;96364.63;;;-7.77;100.00
62103;BME280;48077;48.104;11.702;2024-01-11T07:23:39;96371.69;;;-7.66;100.00
62103;BME280;48077;48.104;11.702;2024-01-11T07:26:07;96376.28;;;-7.57;100.00
62103;BME280;48077;48.104;11.702;2024-01-11T07:28:35;96371.03;;;-7.82;100.00
62103;BME280;48077;48.104;11.702;2024-01-11T07:31:03;96374.03;;;-7.76;100.00
62103;BME280;48077;48.104;11.702;2024-01-11T07:33:31;96377.91;;;-7.68;100.00
62103;BME280;48077;48.104;11.702;2024-01-11T07:36:01;96374.47;;;-7.69;100.00
62103;BME280;48077;48.104;11.702;2024-01-11T07:38:29;96372.44;;;-7.91;100.00
62103;BME280;48077;48.104;11.702;2024-01-11T07:40:57;96359.84;;;-8.10;100.00
62103;BME280;48077;48.104;11.702;2024-01-11T07:43:25;96361.78;;;-8.14;100.00
62103;BME280;48077;48.104;11.702;2024-01-11T07:46:03;96370.72;;;-7.78;100.00
62103;BME280;48077;48.104;11.702;2024-01-11T07:48:32;96376.50;;;-7.60;100.00
62103;BME280;48077;48.104;11.702;2024-01-11T07:51:01;96382.22;;;-7.42;100.00
62103;BME280;48077;48.104;11.702;2024-01-11T07:53:29;96387.63;;;-7.45;100.00
62103;BME280;48077;48.104;11.702;2024-01-11T07:55:58;96385.59;;;-7.54;100.00
62103;BME280;48077;48.104;11.702;2024-01-11T07:58:25;96387.13;;;-7.37;100.00
62103;BME280;48077;48.104;11.702;2024-01-11T08:00:53;96385.94;;;-7.46;100.00
62103;BME280;48077;48.104;11.702;2024-01-11T08:03:21;96382.75;;;-7.49;100.00
62103;BME280;48077;48.104;11.702;2024-01-11T08:05:49;96395.19;;;-7.42;100.00
62103;BME280;48077;48.104;11.702;2024-01-11T08:08:18;96388.13;;;-7.40;100.00
62103;BME280;48077;48.104;11.702;2024-01-11T08:10:47;96397.03;;;-7.44;100.00
62103;BME280;48077;48.104;11.702;2024-01-11T08:13:16;96381.28;;;-7.54;100.00
62103;BME280;48077;48.104;11.702;2024-01-11T08:15:44;96378.47;;;-7.50;100.00
62103;BME280;48077;48.104;11.702;2024-01-11T08:18:12;96376.44;;;-7.45;100.00
62103;BME280;48077;48.104;11.702;2024-01-11T08:20:40;96381.00;;;-7.36;100.00
62103;BME280;48077;48.104;11.702;2024-01-11T08:23:08;96391.06;;;-7.19;100.00
62103;BME280;48077;48.104;11.702;2024-01-11T08:25:37;96394.53;;;-7.05;100.00
62103;BME280;48077;48.104;11.702;2024-01-11T08:28:05;96396.06;;;-7.16;100.00
62103;BME280;48077;48.104;11.702;2024-01-11T08:30:33;96394.84;;;-7.10;100.00
62103;BME280;48077;48.104;11.702;2024-01-11T08:33:01;96402.31;;;-6.80;100.00
62103;BME280;48077;48.104;11.702;2024-01-11T08:35:30;96397.19;;;-7.20;100.00
62103;BME280;48077;48.104;11.702;2024-01-11T08:37:59;96393.31;;;-7.00;100.00
62103;BME280;48077;48.104;11.702;2024-01-11T08:40:27;96400.44;;;-6.78;100.00
62103;BME280;48077;48.104;11.702;2024-01-11T08:42:56;96401.41;;;-6.92;100.00
62103;BME280;48077;48.104;11.702;2024-01-11T08:45:24;96404.81;;;-6.78;100.00
62103;BME280;48077;48.104;11.702;2024-01-11T08:47:52;96412.38;;;-6.75;100.00
62103;BME280;48077;48.104;11.702;2024-01-11T08:50:20;96422.06;;;-6.64;100.00
62103;BME280;48077;48.104;11.702;2024-01-11T08:52:50;96435.00;;;-6.77;100.00
62103;BME280;48077;48.104;11.702;2024-01-11T08:55:18;96430.41;;;-7.12;100.00
62103;BME280;48077;48.104;11.702;2024-01-11T08:57:46;96442.69;;;-6.63;100.00
62103;BME280;48077;48.104;11.702;2024-01-11T09:00:15;96455.06;;;-6.41;100.00
62103;BME280;48077;48.104;11.702;2024-01-11T09:02:45;96457.66;;;-7.19;100.00
62103;BME280;48077;48.104;11.702;2024-01-11T09:05:13;96447.63;;;-7.11;100.00
62103;BME280;48077;48.104;11.702;2024-01-11T09:07:41;96449.34;;;-6.84;100.00
62103;BME280;48077;48.104;11.702;2024-01-11T09:10:10;96464.41;;;-6.77;100.00
62103;BME280;48077;48.104;11.702;2024-01-11T09:12:38;96457.03;;;-6.57;100.00
62103;BME280;48077;48.104;11.702;2024-01-11T09:15:07;96468.66;;;-6.50;100.00
62103;BME280;48077;48.104;11.702;2024-01-11T09:17:36;96469.50;;;-6.49;100.00
62103;BME280;48077;48.104;11.702;2024-01-11T09:20:05;96464.72;;;-6.56;100.00
62103;BME280;48077;48.104;11.702;2024-01-11T09:22:33;96458.88;;;-6.85;100.00
62103;BME280;48077;48.104;11.702;2024-01-11T09:25:01;96455.75;;;-6.90;100.00
62103;BME280;48077;48.104;11.702;2024-01-11T09:27:29;96443.09;;;-6.82;100.00
62103;BME280;48077;48.104;11.702;2024-01-11T09:29:57;96455.34;;;-6.71;100.00
62103;BME280;48077;48.104;11.702;2024-01-11T09:32:25;96470.31;;;-6.75;100.00
62103;BME280;48077;48.104;11.702;2024-01-11T09:34:54;96470.00;;;-6.83;100.00
62103;BME280;48077;48.104;11.702;2024-01-11T09:37:22;96467.41;;;-6.83;100.00
62103;BME280;48077;48.104;11.702;2024-01-11T09:39:50;96469.88;;;-6.81;100.00
62103;BME280;48077;48.104;11.702;2024-01-11T09:42:18;96456.56;;;-7.02;100.00
62103;BME280;48077;48.104;11.702;2024-01-11T09:44:46;96459.53;;;-7.08;100.00
62103;BME280;48077;48.104;11.702;2024-01-11T09:47:15;96452.69;;;-7.22;100.00
62103;BME280;48077;48.104;11.702;2024-01-11T09:49:45;96455.31;;;-6.97;100.00
62103;BME280;48077;48.104;11.702;2024-01-11T09:52:15;96452.34;;;-6.90;100.00
62103;BME280;48077;48.104;11.702;2024-01-11T09:54:43;96451.09;;;-6.72;100.00
62103;BME280;48077;48.104;11.702;2024-01-11T09:57:11;96456.72;;;-6.78;100.00
62103;BME280;48077;48.104;11.702;2024-01-11T09:59:41;96439.97;;;-7.00;100.00
62103;BME280;48077;48.104;11.702;2024-01-11T10:02:12;96437.72;;;-6.66;100.00
62103;BME280;48077;48.104;11.702;2024-01-11T10:04:42;96443.53;;;-6.49;100.00
62103;BME280;48077;48.104;11.702;2024-01-11T10:07:10;96446.75;;;-6.46;100.00
62103;BME280;48077;48.104;11.702;2024-01-11T10:09:39;96424.03;;;-6.68;100.00
62103;BME280;48077;48.104;11.702;2024-01-11T10:12:08;96418.09;;;-6.83;100.00
62103;BME280;48077;48.104;11.702;2024-01-11T10:14:36;96417.88;;;-6.93;100.00
62103;BME280;48077;48.104;11.702;2024-01-11T10:17:04;96420.38;;;-6.91;100.00
62103;BME280;48077;48.104;11.702;2024-01-11T10:19:32;96418.19;;;-6.59;100.00
62103;BME280;48077;48.104;11.702;2024-01-11T10:22:00;96418.81;;;-6.42;100.00
62103;BME280;48077;48.104;11.702;2024-01-11T10:24:28;96414.44;;;-6.16;100.00
62103;BME280;48077;48.104;11.702;2024-01-11T10:26:57;96399.81;;;-6.81;100.00
62103;BME280;48077;48.104;11.702;2024-01-11T10:29:30;96402.63;;;-6.59;100.00
62103;BME280;48077;48.104;11.702;2024-01-11T10:31:58;96402.31;;;-6.41;100.00
62103;BME280;48077;48.104;11.702;2024-01-11T10:34:26;96398.63;;;-6.13;100.00
62103;BME280;48077;48.104;11.702;2024-01-11T10:36:54;96406.91;;;-6.58;100.00
62103;BME280;48077;48.104;11.702;2024-01-11T10:39:24;96407.59;;;-6.43;100.00
62103;BME280;48077;48.104;11.702;2024-01-11T10:42:04;96388.91;;;-6.35;100.00
62103;BME280;48077;48.104;11.702;2024-01-11T10:44:34;96393.16;;;-6.34;100.00
62103;BME280;48077;48.104;11.702;2024-01-11T10:47:04;96384.75;;;-6.25;100.00
62103;BME280;48077;48.104;11.702;2024-01-11T10:49:36;96379.28;;;-6.09;100.00
62103;BME280;48077;48.104;11.702;2024-01-11T10:52:07;96376.63;;;-5.96;100.00
62103;BME280;48077;48.104;11.702;2024-01-11T10:54:36;96382.97;;;-6.24;100.00
62103;BME280;48077;48.104;11.702;2024-01-11T10:57:09;96396.94;;;-6.01;100.00
62103;BME280;48077;48.104;11.702;2024-01-11T10:59:39;96401.63;;;-6.19;100.00
62103;BME280;48077;48.104;11.702;2024-01-11T11:02:10;96405.78;;;-6.04;100.00
62103;BME280;48077;48.104;11.702;2024-01-11T11:04:40;96407.16;;;-5.87;100.00
62103;BME280;48077;48.104;11.702;2024-01-11T11:07:09;96398.47;;;-5.99;100.00
62103;BME280;48077;48.104;11.702;2024-01-11T11:09:38;96399.19;;;-5.97;100.00
62103;BME280;48077;48.104;11.702;2024-01-11T11:12:12;96367.22;;;-6.47;100.00
62103;BME280;48077;48.104;11.702;2024-01-11T11:14:41;96382.66;;;-6.33;100.00
62103;BME280;48077;48.104;11.702;2024-01-11T11:17:10;96380.13;;;-6.21;100.00
62103;BME280;48077;48.104;11.702;2024-01-11T11:19:38;96373.66;;;-6.03;100.00
62103;BME280;48077;48.104;11.702;2024-01-11T11:22:06;96382.97;;;-6.24;100.00
62103;BME280;48077;48.104;11.702;2024-01-11T11:24:34;96381.13;;;-5.98;100.00
62103;BME280;48077;48.104;11.702;2024-01-11T11:27:02;96376.84;;;-5.75;100.00
62103;BME280;48077;48.104;11.702;2024-01-11T11:29:31;96385.13;;;-5.94;100.00
62103;BME280;48077;48.104;11.702;2024-01-11T11:31:59;96394.06;;;-5.61;100.00
62103;BME280;48077;48.104;11.702;2024-01-11T11:34:48;96398.03;;;-5.68;100.00
62103;BME280;48077;48.104;11.702;2024-01-11T11:37:22;96405.88;;;-5.81;100.00
62103;BME280;48077;48.104;11.702;2024-01-11T11:39:51;96398.09;;;-6.05;100.00
62103;BME280;48077;48.104;11.702;2024-01-11T11:42:21;96388.84;;;-6.09;100.00
62103;BME280;48077;48.104;11.702;2024-01-11T11:44:52;96379.97;;;-5.70;100.00
62103;BME280;48077;48.104;11.702;2024-01-11T11:47:21;96371.88;;;-5.78;100.00
62103;BME280;48077;48.104;11.702;2024-01-11T11:49:57;96374.31;;;-5.64;100.00
62103;BME280;48077;48.104;11.702;2024-01-11T11:52:26;96372.91;;;-5.57;100.00
62103;BME280;48077;48.104;11.702;2024-01-11T11:54:55;96379.66;;;-5.78;100.00
62103;BME280;48077;48.104;11.702;2024-01-11T11:57:23;96378.34;;;-5.84;100.00
62103;BME280;48077;48.104;11.702;2024-01-11T11:59:54;96382.69;;;-6.08;100.00
62103;BME280;48077;48.104;11.702;2024-01-11T12:02:22;96381.44;;;-5.79;100.00
62103;BME280;48077;48.104;11.702;2024-01-11T12:04:52;96378.56;;;-6.11;100.00
62103;BME280;48077;48.104;11.702;2024-01-11T12:07:20;96385.97;;;-6.18;100.00
62103;BME280;48077;48.104;11.702;2024-01-11T12:09:49;96381.84;;;-6.33;100.00
62103;BME280;48077;48.104;11.702;2024-01-11T12:12:18;96384.03;;;-6.27;100.00
62103;BME280;48077;48.104;11.702;2024-01-11T12:14:47;96393.09;;;-5.84;100.00
62103;BME280;48077;48.104;11.702;2024-01-11T12:17:17;96391.41;;;-5.73;100.00
62103;BME280;48077;48.104;11.702;2024-01-11T12:19:45;96389.63;;;-5.96;100.00
62103;BME280;48077;48.104;11.702;2024-01-11T12:22:13;96379.13;;;-6.32;100.00
62103;BME280;48077;48.104;11.702;2024-01-11T12:24:41;96367.19;;;-5.97;100.00
62103;BME280;48077;48.104;11.702;2024-01-11T12:27:09;96350.31;;;-5.67;100.00
62103;BME280;48077;48.104;11.702;2024-01-11T12:29:38;96355.59;;;-5.45;100.00
62103;BME280;48077;48.104;11.702;2024-01-11T12:32:25;96354.06;;;-5.47;100.00
62103;BME280;48077;48.104;11.702;2024-01-11T12:34:56;96355.38;;;-5.90;100.00
62103;BME280;48077;48.104;11.702;2024-01-11T12:37:25;96362.78;;;-6.08;100.00
62103;BME280;48077;48.104;11.702;2024-01-11T12:39:57;96368.28;;;-5.88;100.00
62103;BME280;48077;48.104;11.702;2024-01-11T12:42:25;96351.25;;;-5.93;100.00
62103;BME280;48077;48.104;11.702;2024-01-11T12:44:53;96357.09;;;-5.54;100.00
62103;BME280;48077;48.104;11.702;2024-01-11T12:47:26;96373.81;;;-5.45;100.00
62103;BME280;48077;48.104;11.702;2024-01-11T12:49:56;96384.25;;;-5.82;100.00
62103;BME280;48077;48.104;11.702;2024-01-11T12:52:24;96375.09;;;-5.75;100.00